Time;durP1;ratioP1;P1;durP2;ratioP2;P2;SDS_P1;SDS_P2;PMS_P1;PMS_P2;Temp;Humidity;BMP_temperature;BMP_pressure;BME280_temperature;BME280_humidity;BME280_pressure;Samples;Min_cycle;Max_cycle;Signal;HPM_P1;HPM_P2
2022/10/27 00:00:46;;;;;;;11.82;4.35;;;;;;;10.22;100.00;98117.78;5069477;28;20322;-58
2022/10/27 00:03:14;;;;;;;9.63;3.97;;;;;;;10.19;100.00;98115.53;5066179;28;20279;-58
2022/10/27 00:05:45;;;;;;;13.38;4.22;;;;;;;10.16;100.00;98113.28;5049792;28;20053;-58
2022/10/27 00:08:18;;;;;;;11.98;5.60;;;;;;;10.02;100.00;98112.63;5049736;28;20133;-58
2022/10/27 00:10:44;;;;;;;9.82;5.13;;;;;;;9.95;100.00;98125.44;5048432;28;20049;-58
2022/10/27 00:13:12;;;;;;;16.45;7.15;;;;;;;9.83;100.00;98119.97;5064305;28;20075;-58
2022/10/27 00:15:39;;;;;;;12.70;5.85;;;;;;;9.82;100.00;98118.34;5069965;28;20135;-58
2022/10/27 00:18:08;;;;;;;9.30;5.07;;;;;;;9.86;100.00;98127.63;5069376;28;20060;-58
2022/10/27 00:20:34;;;;;;;10.30;4.88;;;;;;;9.83;100.00;98119.97;5060574;28;20117;-58
2022/10/27 00:23:01;;;;;;;11.48;5.47;;;;;;;9.86;100.00;98128.47;5069028;28;20098;-56
2022/10/27 00:25:27;;;;;;;11.88;6.00;;;;;;;9.81;100.00;98122.09;5063703;28;20080;-58
2022/10/27 00:27:54;;;;;;;12.88;5.00;;;;;;;9.59;100.00;98125.28;5069184;28;20045;-58
2022/10/27 00:30:20;;;;;;;11.95;5.78;;;;;;;9.58;100.00;98126.34;5067820;28;20479;-58
2022/10/27 00:32:46;;;;;;;11.77;5.20;;;;;;;9.50;100.00;98127.44;5062755;28;20154;-58
2022/10/27 00:35:13;;;;;;;13.10;5.53;;;;;;;9.33;100.00;98133.47;5068895;28;20402;-58
2022/10/27 00:37:40;;;;;;;9.27;5.05;;;;;;;9.50;100.00;98141.81;5069324;28;20123;-59
2022/10/27 00:40:07;;;;;;;16.60;5.75;;;;;;;9.64;100.00;98138.94;5068817;28;20133;-58
2022/10/27 00:42:33;;;;;;;8.27;4.32;;;;;;;9.57;100.00;98143.59;5068769;28;20036;-58
2022/10/27 00:44:59;;;;;;;9.60;5.90;;;;;;;9.30;100.00;98135.81;5054001;28;20428;-58
2022/10/27 00:47:32;;;;;;;13.05;5.57;;;;;;;9.20;100.00;98147.13;5049308;28;20531;-58
2022/10/27 00:50:02;;;;;;;15.93;6.40;;;;;;;9.21;100.00;98149.59;5049318;28;20095;-58
2022/10/27 00:52:40;;;;;;;12.20;5.65;;;;;;;9.20;100.00;98150.66;5048341;28;20041;-57
2022/10/27 00:55:13;;;;;;;11.30;5.72;;;;;;;9.26;100.00;98148.09;5067642;28;20261;-58
2022/10/27 00:57:43;;;;;;;8.95;5.28;;;;;;;9.39;100.00;98144.44;5068738;28;20072;-58
2022/10/27 01:00:10;;;;;;;12.77;5.15;;;;;;;9.39;100.00;98144.44;5069260;28;20487;-58
2022/10/27 01:02:37;;;;;;;12.52;5.13;;;;;;;9.39;100.00;98142.56;5068315;28;20063;-58
2022/10/27 01:05:10;;;;;;;13.73;5.38;;;;;;;9.39;100.00;98145.25;5056193;28;20072;-58
2022/10/27 01:07:37;;;;;;;9.85;5.25;;;;;;;9.42;100.00;98139.41;5048590;28;20506;-58
2022/10/27 01:10:04;;;;;;;12.95;6.03;;;;;;;9.46;100.00;98129.78;5047608;28;20106;-58
2022/10/27 01:12:31;;;;;;;25.00;7.22;;;;;;;9.42;100.00;98136.69;5058752;28;20123;-57
2022/10/27 01:14:58;;;;;;;15.73;6.50;;;;;;;9.40;100.00;98143.38;5068413;28;20051;-58
2022/10/27 01:17:48;;;;;;;10.07;5.80;;;;;;;9.36;100.00;98143.84;5065875;28;20380;-58
2022/10/27 01:20:33;;;;;;;15.75;6.07;;;;;;;9.29;100.00;98136.84;5044153;28;20145;-58
2022/10/27 01:23:00;;;;;;;11.82;5.65;;;;;;;9.25;100.00;98136.47;5048656;28;20079;-58
2022/10/27 01:25:46;;;;;;;16.35;6.10;;;;;;;9.21;100.00;98138.78;5049245;28;20063;-58
2022/10/27 01:28:21;;;;;;;12.38;6.38;;;;;;;9.32;100.00;98141.81;5048193;28;20508;-58
2022/10/27 01:31:08;;;;;;;9.88;5.88;;;;;;;9.37;100.00;98141.97;5047994;28;20045;-58
2022/10/27 01:34:02;;;;;;;11.45;5.88;;;;;;;9.39;100.00;98147.16;5046401;28;20036;-58
2022/10/27 01:36:36;;;;;;;15.50;5.65;;;;;;;9.38;100.00;98132.81;5065304;28;20091;-57
2022/10/27 01:39:26;;;;;;;9.82;5.40;;;;;;;9.36;100.00;98143.00;5067785;28;20068;-58
2022/10/27 01:42:02;;;;;;;8.07;4.63;;;;;;;9.39;100.00;98139.84;5067958;28;20098;-59
2022/10/27 01:44:35;;;;;;;13.57;5.35;;;;;;;9.25;100.00;98136.47;5068379;28;20123;-58
2022/10/27 01:47:02;;;;;;;11.75;4.97;;;;;;;9.12;100.00;98126.63;5068098;28;20071;-58
2022/10/27 01:49:37;;;;;;;10.15;4.63;;;;;;;9.00;100.00;98125.72;5065382;28;20569;-58
2022/10/27 01:52:35;;;;;;;14.07;5.43;;;;;;;9.04;100.00;98122.34;5067120;28;20508;-58
2022/10/27 01:55:02;;;;;;;22.33;5.50;;;;;;;9.02;100.00;98119.03;5067657;28;20038;-58
2022/10/27 01:58:00;;;;;;;7.85;4.35;;;;;;;8.90;100.00;98110.84;5067037;28;20044;-58
2022/10/27 02:00:30;;;;;;;14.45;5.28;;;;;;;8.59;100.00;98116.09;5053722;28;20409;-57
2022/10/27 02:03:05;;;;;;;10.98;5.30;;;;;;;8.53;100.00;98116.16;5066979;28;20551;-58
2022/10/27 02:05:42;;;;;;;7.95;4.88;;;;;;;8.70;100.00;98124.53;5050648;28;20041;-58
2022/10/27 02:08:19;;;;;;;9.52;5.88;;;;;;;8.65;100.00;98113.56;5051102;28;20454;-58
2022/10/27 02:11:03;;;;;;;13.25;5.75;;;;;;;8.60;100.00;98122.34;5067402;28;20123;-58
2022/10/27 02:13:31;;;;;;;17.73;5.75;;;;;;;8.61;100.00;98131.25;5067169;28;20531;-58
2022/10/27 02:16:02;;;;;;;10.18;5.32;;;;;;;8.65;100.00;98127.06;5067659;28;20124;-58
2022/10/27 02:18:34;;;;;;;11.55;5.53;;;;;;;8.73;100.00;98129.47;5067729;28;20492;-58
2022/10/27 02:21:05;;;;;;;14.20;5.30;;;;;;;8.89;100.00;98124.56;5066377;28;20123;-58
2022/10/27 02:23:32;;;;;;;12.52;5.40;;;;;;;8.92;100.00;98119.53;5067505;28;20041;-57
2022/10/27 02:26:20;;;;;;;10.55;4.97;;;;;;;8.88;100.00;98121.03;5067309;28;20040;-58
2022/10/27 02:28:53;;;;;;;10.73;5.85;;;;;;;8.93;100.00;98114.97;5061237;28;20076;-57
2022/10/27 02:31:25;;;;;;;10.27;4.97;;;;;;;8.93;100.00;98110.41;5046728;28;20045;-58
2022/10/27 02:33:52;;;;;;;10.32;5.22;;;;;;;8.91;100.00;98115.19;5047774;28;20033;-58
2022/10/27 02:36:19;;;;;;;14.18;5.47;;;;;;;8.89;100.00;98111.06;5062381;28;20212;-57
2022/10/27 02:38:45;;;;;;;10.02;5.32;;;;;;;8.84;100.00;98114.44;5067420;28;20040;-58
2022/10/27 02:41:11;;;;;;;9.50;4.75;;;;;;;8.87;100.00;98116.69;5066845;28;20119;-58
2022/10/27 02:43:38;;;;;;;13.63;5.40;;;;;;;8.89;100.00;98119.16;5065647;28;20119;-58
2022/10/27 02:46:05;;;;;;;12.80;5.82;;;;;;;8.99;100.00;98116.78;5066974;28;20040;-58
2022/10/27 02:48:32;;;;;;;11.27;5.65;;;;;;;8.98;100.00;98115.97;5066314;28;20040;-58
2022/10/27 02:50:58;;;;;;;9.77;5.38;;;;;;;8.91;100.00;98125.16;5052963;28;20044;-58
2022/10/27 02:53:25;;;;;;;12.40;4.95;;;;;;;9.00;100.00;98117.63;5050191;28;20094;-58
2022/10/27 02:55:51;;;;;;;8.85;4.78;;;;;;;9.11;100.00;98116.88;5067464;28;20566;-58
2022/10/27 02:58:18;;;;;;;10.48;4.40;;;;;;;9.10;100.00;98116.03;5067318;28;20408;-58
2022/10/27 03:00:44;;;;;;;8.88;4.60;;;;;;;9.06;100.00;98109.44;5065955;28;20211;-58
2022/10/27 03:03:11;;;;;;;10.07;4.43;;;;;;;8.81;100.00;98114.91;5066575;28;20044;-57
2022/10/27 03:05:37;;;;;;;9.00;4.38;;;;;;;8.57;100.00;98115.50;5059318;28;20080;-58
2022/10/27 03:08:04;;;;;;;12.57;5.35;;;;;;;8.50;100.00;98117.41;5067121;28;20060;-58
2022/10/27 03:10:30;;;;;;;12.07;6.22;;;;;;;8.52;100.00;98119.88;5066155;28;20078;-58
2022/10/27 03:12:57;;;;;;;13.23;5.55;;;;;;;8.58;100.00;98114.47;5061814;28;20047;-58
2022/10/27 03:15:23;;;;;;;10.15;5.95;;;;;;;8.71;100.00;98113.50;5065238;28;20080;-58
2022/10/27 03:17:50;;;;;;;11.50;5.60;;;;;;;8.74;100.00;98111.41;5066069;28;20535;-57
2022/10/27 03:20:16;;;;;;;10.90;5.75;;;;;;;8.79;100.00;98109.72;5066452;28;20044;-58
2022/10/27 03:22:43;;;;;;;8.52;4.78;;;;;;;8.78;100.00;98115.31;5065863;28;20123;-58
2022/10/27 03:25:13;;;;;;;12.23;5.20;;;;;;;8.49;100.00;98104.97;5066263;28;20052;-58
2022/10/27 03:27:42;;;;;;;9.60;5.30;;;;;;;8.15;100.00;98120.56;5055712;28;20072;-58
2022/10/27 03:30:11;;;;;;;9.90;5.82;;;;;;;8.02;100.00;98118.75;5045971;28;20421;-57
2022/10/27 03:32:38;;;;;;;13.35;6.60;;;;;;;8.06;100.00;98131.59;5045175;28;20049;-58
2022/10/27 03:35:05;;;;;;;14.30;6.70;;;;;;;8.12;100.00;98134.47;5051389;28;20108;-58
2022/10/27 03:37:32;;;;;;;12.23;6.78;;;;;;;8.24;100.00;98135.44;5066147;28;20044;-58
2022/10/27 03:39:58;;;;;;;15.50;7.05;;;;;;;8.15;100.00;98132.16;5066299;28;20050;-58
2022/10/27 03:42:24;;;;;;;14.70;6.93;;;;;;;8.22;100.00;98129.41;5059684;28;20036;-58
2022/10/27 03:44:51;;;;;;;12.93;8.55;;;;;;;8.33;100.00;98119.78;5065499;28;20041;-58
2022/10/27 03:47:17;;;;;;;16.02;8.52;;;;;;;8.44;100.00;98124.50;5066384;28;20068;-58
2022/10/27 03:49:44;;;;;;;19.50;8.90;;;;;;;8.55;100.00;98124.88;5066238;28;20132;-58
2022/10/27 03:52:10;;;;;;;21.25;9.00;;;;;;;8.61;100.00;98125.84;5065307;28;20135;-58
2022/10/27 03:54:37;;;;;;;17.85;7.97;;;;;;;8.69;100.00;98137.22;5065955;28;20139;-57
2022/10/27 03:57:03;;;;;;;11.90;6.63;;;;;;;8.78;100.00;98128.81;5056085;28;20487;-58
2022/10/27 03:59:30;;;;;;;10.23;6.55;;;;;;;8.84;100.00;98133.34;5045321;28;20294;-58
2022/10/27 04:01:56;;;;;;;11.07;6.05;;;;;;;8.80;100.00;98122.16;5043983;28;20135;-58
2022/10/27 04:04:26;;;;;;;14.75;7.72;;;;;;;8.78;100.00;98129.66;5045795;28;20047;-58
2022/10/27 04:06:52;;;;;;;19.55;6.75;;;;;;;8.68;100.00;98127.47;5047756;28;20033;-58
2022/10/27 04:09:19;;;;;;;11.32;5.80;;;;;;;8.73;100.00;98128.69;5054461;28;20367;-57
2022/10/27 04:11:45;;;;;;;8.88;5.50;;;;;;;8.77;100.00;98121.78;5057731;28;20040;-57
2022/10/27 04:14:12;;;;;;;11.00;5.72;;;;;;;8.84;100.00;98126.06;5060682;28;20040;-58
2022/10/27 04:16:38;;;;;;;11.98;5.90;;;;;;;8.81;100.00;98123.81;5062038;28;20584;-58
2022/10/27 04:19:05;;;;;;;9.57;5.80;;;;;;;8.91;100.00;98127.88;5057574;28;20119;-58
2022/10/27 04:21:31;;;;;;;11.40;5.90;;;;;;;8.91;100.00;98126.00;5062561;28;20076;-58
2022/10/27 04:23:58;;;;;;;15.57;6.55;;;;;;;8.65;100.00;98133.28;5063397;28;20044;-58
2022/10/27 04:26:24;;;;;;;13.63;5.63;;;;;;;8.64;100.00;98125.41;5059393;28;20076;-58
2022/10/27 04:28:51;;;;;;;9.52;6.38;;;;;;;8.56;100.00;98123.81;5062710;28;20070;-58
2022/10/27 04:31:18;;;;;;;8.80;5.45;;;;;;;8.55;100.00;98123.00;5062963;28;20135;-58
2022/10/27 04:33:44;;;;;;;13.73;6.38;;;;;;;8.64;100.00;98128.94;5063065;28;20037;-58
2022/10/27 04:36:10;;;;;;;12.55;6.60;;;;;;;8.65;100.00;98129.75;5058410;28;20044;-58
2022/10/27 04:38:37;;;;;;;14.27;6.22;;;;;;;8.68;100.00;98134.72;5060067;28;20094;-58
2022/10/27 04:41:04;;;;;;;11.73;6.20;;;;;;;8.76;100.00;98130.91;5062993;28;20076;-58
2022/10/27 04:43:30;;;;;;;10.88;6.15;;;;;;;8.87;100.00;98132.91;5064324;28;20122;-58
2022/10/27 04:45:56;;;;;;;13.90;7.70;;;;;;;8.93;100.00;98142.81;5066726;28;20135;-58
2022/10/27 04:48:23;;;;;;;10.25;6.97;;;;;;;9.04;100.00;98140.44;5067188;28;20045;-58
2022/10/27 04:50:49;;;;;;;14.68;7.10;;;;;;;9.19;100.00;98131.97;5065295;28;20486;-57
2022/10/27 04:53:16;;;;;;;11.82;6.50;;;;;;;9.31;100.00;98140.16;5066736;28;20036;-57
2022/10/27 04:55:42;;;;;;;12.60;6.63;;;;;;;9.42;100.00;98139.41;5066301;28;20584;-58
2022/10/27 04:58:09;;;;;;;16.23;7.50;;;;;;;9.36;100.00;98134.88;5052533;28;20440;-58
2022/10/27 05:00:35;;;;;;;12.88;7.03;;;;;;;9.39;100.00;98129.03;5054291;28;20068;-58
2022/10/27 05:03:02;;;;;;;16.15;7.55;;;;;;;9.41;100.00;98135.06;5050851;28;20075;-57
2022/10/27 05:05:29;;;;;;;16.20;7.90;;;;;;;9.39;100.00;98139.84;5054536;28;20144;-58
2022/10/27 05:08:00;;;;;;;12.30;8.30;;;;;;;9.39;100.00;98133.63;5055569;28;20578;-58
2022/10/27 05:10:28;;;;;;;15.52;9.18;;;;;;;9.32;100.00;98128.31;5050367;28;20083;-58
2022/10/27 05:12:55;;;;;;;11.95;7.63;;;;;;;9.30;100.00;98125.00;5052222;28;20116;-58
2022/10/27 05:15:22;;;;;;;12.95;7.35;;;;;;;9.32;100.00;98122.91;5057152;28;20069;-58
2022/10/27 05:17:48;;;;;;;16.63;7.07;;;;;;;9.34;100.00;98127.03;5054653;28;20073;-58
2022/10/27 05:20:16;;;;;;;13.07;7.07;;;;;;;9.35;100.00;98122.44;5054083;28;20043;-58
2022/10/27 05:22:42;;;;;;;12.50;7.75;;;;;;;9.17;100.00;98115.13;5051019;28;20108;-58
2022/10/27 05:25:09;;;;;;;13.95;8.60;;;;;;;9.13;100.00;98106.66;5053795;28;20068;-58
2022/10/27 05:27:37;;;;;;;14.85;8.45;;;;;;;9.06;100.00;98108.59;5053215;28;20494;-58
2022/10/27 05:30:05;;;;;;;13.25;8.25;;;;;;;9.16;100.00;98103.53;5054093;28;20507;-58
2022/10/27 05:32:31;;;;;;;14.73;7.82;;;;;;;9.16;100.00;98106.22;5052737;28;20131;-58
2022/10/27 05:34:58;;;;;;;14.60;7.20;;;;;;;9.15;100.00;98112.69;5051823;28;20064;-58
2022/10/27 05:37:25;;;;;;;16.10;7.22;;;;;;;9.18;100.00;98104.09;5051335;28;20116;-58
2022/10/27 05:39:51;;;;;;;12.45;7.72;;;;;;;9.25;100.00;98098.63;5058638;28;20106;-58
2022/10/27 05:42:18;;;;;;;10.55;6.85;;;;;;;9.30;100.00;98100.66;5052877;28;20051;-58
2022/10/27 05:44:44;;;;;;;19.40;7.50;;;;;;;9.29;100.00;98096.31;5054254;28;20492;-59
2022/10/27 05:47:11;;;;;;;12.15;7.13;;;;;;;9.13;100.00;98089.66;5050206;28;20562;-58
2022/10/27 05:49:37;;;;;;;15.68;7.90;;;;;;;9.09;100.00;98091.94;5056060;28;20538;-57
2022/10/27 05:52:04;;;;;;;16.02;8.02;;;;;;;9.14;100.00;98091.28;5052814;28;20518;-56
2022/10/27 05:54:31;;;;;;;17.40;7.85;;;;;;;9.19;100.00;98096.84;5055394;28;20128;-56
2022/10/27 05:56:57;;;;;;;13.20;8.10;;;;;;;9.26;100.00;98102.16;5052655;28;20045;-58
2022/10/27 05:59:24;;;;;;;15.02;8.38;;;;;;;9.36;100.00;98095.19;5052602;28;20492;-58
2022/10/27 06:01:51;;;;;;;17.60;9.77;;;;;;;9.43;100.00;98105.91;5066090;28;20268;-58
2022/10/27 06:04:17;;;;;;;15.45;8.93;;;;;;;9.53;100.00;98113.50;5060932;28;20394;-58
2022/10/27 06:06:44;;;;;;;18.08;9.05;;;;;;;9.56;100.00;98115.75;5064191;28;20040;-58
2022/10/27 06:09:10;;;;;;;17.33;9.30;;;;;;;9.67;100.00;98119.56;5064579;28;20459;-58
2022/10/27 06:11:36;;;;;;;17.15;9.25;;;;;;;9.83;100.00;98122.69;5052378;28;20072;-58
2022/10/27 06:14:03;;;;;;;16.05;9.65;;;;;;;9.84;100.00;98118.94;5064046;28;20400;-58
2022/10/27 06:16:29;;;;;;;18.75;8.98;;;;;;;9.93;100.00;98119.44;5062503;28;20585;-58
2022/10/27 06:18:56;;;;;;;17.85;8.63;;;;;;;9.94;100.00;98124.63;5065146;28;20090;-58
2022/10/27 06:21:22;;;;;;;14.77;8.02;;;;;;;9.98;100.00;98123.09;5064682;28;20463;-58
2022/10/27 06:23:49;;;;;;;18.15;8.77;;;;;;;9.96;100.00;98121.69;5064466;28;20043;-58
2022/10/27 06:26:16;;;;;;;17.45;8.98;;;;;;;9.84;100.00;98127.06;5064990;28;20477;-57
2022/10/27 06:28:43;;;;;;;16.00;8.90;;;;;;;9.78;100.00;98131.50;5061227;28;20410;-57
2022/10/27 06:31:09;;;;;;;15.25;9.02;;;;;;;9.80;100.00;98133.97;5064709;28;20477;-58
2022/10/27 06:33:36;;;;;;;14.88;8.10;;;;;;;9.81;100.00;98139.16;5055529;28;20041;-57
2022/10/27 06:36:03;;;;;;;15.13;8.55;;;;;;;9.91;100.00;98127.78;5045779;28;20041;-58
2022/10/27 06:38:29;;;;;;;13.60;8.43;;;;;;;9.92;100.00;98124.03;5046735;28;20129;-58
2022/10/27 06:40:56;;;;;;;22.38;8.68;;;;;;;10.03;100.00;98125.13;5045679;28;20106;-57
2022/10/27 06:43:22;;;;;;;11.75;7.63;;;;;;;10.07;100.00;98123.63;5063171;28;20055;-58
2022/10/27 06:45:49;;;;;;;16.83;7.78;;;;;;;10.10;100.00;98122.34;5062974;28;20080;-57
2022/10/27 06:48:15;;;;;;;12.80;7.80;;;;;;;10.05;100.00;98116.75;5046998;28;20045;-58
2022/10/27 06:50:42;;;;;;;16.55;7.68;;;;;;;10.10;100.00;98123.13;5056339;28;20529;-58
2022/10/27 06:53:08;;;;;;;19.20;6.93;;;;;;;10.13;100.00;98125.38;5063129;28;20078;-57
2022/10/27 06:55:35;;;;;;;18.52;8.68;;;;;;;10.22;100.00;98125.06;5064328;28;20047;-58
2022/10/27 06:58:02;;;;;;;12.27;7.40;;;;;;;10.28;100.00;98134.94;5056897;28;20128;-58
2022/10/27 07:00:28;;;;;;;15.27;7.45;;;;;;;10.38;100.00;98124.41;5061621;28;20282;-58
2022/10/27 07:02:55;;;;;;;13.57;6.88;;;;;;;10.49;100.00;98128.22;5060841;28;20049;-58
2022/10/27 07:05:21;;;;;;;13.68;7.57;;;;;;;10.59;100.00;98129.53;5059279;28;20040;-58
2022/10/27 07:07:52;;;;;;;14.48;7.15;;;;;;;10.65;100.00;98131.31;5044732;28;20073;-58
2022/10/27 07:10:20;;;;;;;13.20;6.63;;;;;;;10.70;100.00;98138.72;5054948;28;20542;-58
2022/10/27 07:12:57;;;;;;;20.15;7.55;;;;;;;10.75;100.00;98134.25;5065973;28;20045;-58
2022/10/27 07:15:26;;;;;;;13.88;6.68;;;;;;;10.83;100.00;98130.38;5047974;28;20114;-58
2022/10/27 07:17:59;;;;;;;11.25;5.82;;;;;;;10.99;100.00;98128.03;5059230;28;20132;-58
2022/10/27 07:20:30;;;;;;;11.18;5.68;;;;;;;11.15;100.00;98115.63;5056454;28;20845;-58
2022/10/27 07:22:57;;;;;;;11.25;7.00;;;;;;;11.29;100.00;98116.22;5057847;28;20287;-56
2022/10/27 07:25:24;;;;;;;13.02;5.32;;;;;;;11.44;100.00;98121.13;5059183;28;20487;-57
2022/10/27 07:27:52;;;;;;;13.48;5.00;;;;;;;11.56;100.00;98118.38;5056717;28;20124;-56
2022/10/27 07:30:23;;;;;;;11.27;5.65;;;;;;;11.65;100.00;98124.28;5061965;28;20151;-58
2022/10/27 07:32:49;;;;;;;11.85;5.80;;;;;;;11.81;100.00;98128.94;5055392;28;20099;-58
2022/10/27 07:35:16;;;;;;;11.43;4.95;;;;;;;11.91;100.00;98130.19;5057072;28;20068;-58
2022/10/27 07:37:46;;;;;;;12.02;5.30;;;;;;;11.94;100.00;98133.25;5055334;28;20048;-57
2022/10/27 07:40:14;;;;;;;9.48;4.68;;;;;;;12.03;100.00;98133.69;5051999;28;20029;-58
2022/10/27 07:42:58;;;;;;;9.90;4.75;;;;;;;12.16;100.00;98139.94;5054477;28;20083;-61
2022/10/27 07:45:32;;;;;;;8.90;4.22;;;;;;;12.23;100.00;98144.13;5058692;28;20341;-58
2022/10/27 07:47:59;;;;;;;12.45;4.70;;;;;;;12.35;100.00;98140.53;5062068;28;20548;-58
2022/10/27 07:50:28;;;;;;;9.77;4.18;;;;;;;12.42;100.00;98138.47;5060519;28;20431;-59
2022/10/27 07:52:56;;;;;;;10.52;4.32;;;;;;;12.52;100.00;98148.69;5062350;28;20503;-59
2022/10/27 07:55:25;;;;;;;9.43;4.13;;;;;;;12.58;100.00;98153.16;5054808;28;20131;-56
2022/10/27 07:58:09;;;;;;;11.27;4.65;;;;;;;12.69;100.00;98153.31;5062509;28;20516;-58
2022/10/27 08:00:38;;;;;;;9.88;4.57;;;;;;;12.72;100.00;98152.84;5063383;28;20393;-58
2022/10/27 08:03:06;;;;;;;8.57;4.88;;;;;;;12.81;100.00;98143.19;5061343;28;20076;-57
2022/10/27 08:05:34;;;;;;;11.30;3.97;;;;;;;12.91;100.00;98156.13;5044573;28;20037;-58
2022/10/27 08:08:04;;;;;;;8.38;3.60;;;;;;;13.00;100.00;98156.53;5045109;28;20132;-58
2022/10/27 08:10:32;;;;;;;8.48;3.90;;;;;;;13.11;100.00;98154.78;5057467;28;20033;-57
2022/10/27 08:12:59;;;;;;;8.60;3.65;;;;;;;13.27;100.00;98155.84;5065930;28;20551;-56
2022/10/27 08:15:26;;;;;;;10.15;3.97;;;;;;;13.38;100.00;98152.16;5058602;28;20072;-58
2022/10/27 08:17:54;;;;;;;14.43;3.80;;;;;;;13.49;100.00;98149.63;5045654;28;20512;-56
2022/10/27 08:20:21;;;;;;;8.55;3.72;;;;;;;13.62;100.00;98149.25;5068846;28;20067;-58
2022/10/27 08:22:58;;;;;;;9.55;3.45;;;;;;;13.75;100.00;98149.97;5058004;28;20044;-57
2022/10/27 08:25:25;;;;;;;7.85;2.67;;;;;;;13.84;100.00;98150.31;5046066;28;20090;-58
2022/10/27 08:27:52;;;;;;;9.93;3.60;;;;;;;14.02;98.27;98146.44;5068823;28;20268;-58
2022/10/27 08:30:21;;;;;;;9.10;3.15;;;;;;;14.12;97.06;98148.47;5067479;28;20047;-58
2022/10/27 08:32:48;;;;;;;10.77;2.92;;;;;;;14.22;97.93;98151.28;5044191;28;20056;-58
2022/10/27 08:35:16;;;;;;;7.97;3.03;;;;;;;14.31;97.47;98154.38;5067305;28;20045;-58
2022/10/27 08:37:42;;;;;;;9.70;3.40;;;;;;;14.37;95.84;98155.25;5052338;28;20361;-58
2022/10/27 08:40:09;;;;;;;7.57;2.90;;;;;;;14.51;96.85;98147.47;5039512;28;20396;-58
2022/10/27 08:42:53;;;;;;;8.38;3.03;;;;;;;14.59;94.67;98154.38;5067503;28;20051;-58
2022/10/27 08:45:27;;;;;;;6.57;3.03;;;;;;;14.72;93.09;98148.47;5033130;28;20036;-58
2022/10/27 08:47:57;;;;;;;6.22;2.55;;;;;;;14.79;92.49;98154.56;5049609;28;20598;-58
2022/10/27 08:50:26;;;;;;;10.23;2.72;;;;;;;14.91;91.33;98154.38;5049946;28;20044;-58
2022/10/27 08:52:58;;;;;;;7.28;2.50;;;;;;;15.03;91.06;98154.19;5059123;28;20083;-58
2022/10/27 08:55:37;;;;;;;6.97;2.53;;;;;;;15.11;90.99;98154.78;5048173;28;20051;-58
2022/10/27 08:58:16;;;;;;;7.03;3.08;;;;;;;15.25;89.90;98161.41;5063671;28;20120;-58
2022/10/27 09:00:58;;;;;;;9.52;2.92;;;;;;;15.36;89.33;98156.84;5068709;28;20040;-58
2022/10/27 09:03:47;;;;;;;5.97;2.33;;;;;;;15.42;87.24;98158.53;5059561;28;20068;-57
2022/10/27 09:06:37;;;;;;;9.15;3.13;;;;;;;15.53;87.06;98153.13;5049267;28;20120;-56
2022/10/27 09:09:28;;;;;;;10.02;2.53;;;;;;;15.65;85.99;98155.63;5048461;28;20075;-57
2022/10/27 09:12:37;;;;;;;10.50;2.80;;;;;;;15.85;84.65;98163.91;5053936;28;20036;-57
2022/10/27 09:15:18;;;;;;;10.15;2.65;;;;;;;16.01;82.48;98147.63;5046326;28;20124;-58
2022/10/27 09:17:55;;;;;;;7.95;3.10;;;;;;;16.09;83.47;98151.72;5061357;28;20538;-58
2022/10/27 09:20:35;;;;;;;8.55;2.83;;;;;;;16.25;81.12;98149.84;5063908;28;20349;-57
2022/10/27 09:23:04;;;;;;;11.10;2.55;;;;;;;16.31;80.61;98145.22;5066221;28;20052;-58
2022/10/27 09:25:39;;;;;;;6.55;2.90;;;;;;;16.38;79.82;98145.78;5060208;28;20039;-58
2022/10/27 09:28:14;;;;;;;7.15;2.65;;;;;;;16.46;79.57;98152.59;5066100;28;20053;-56
2022/10/27 09:30:42;;;;;;;8.55;2.42;;;;;;;16.49;79.13;98152.06;5061379;28;20068;-60
2022/10/27 09:33:18;;;;;;;7.70;2.92;;;;;;;16.57;78.15;98145.25;5048417;28;20045;-59
2022/10/27 09:35:44;;;;;;;5.80;2.20;;;;;;;16.61;78.13;98146.34;5050091;28;20083;-59
2022/10/27 09:38:14;;;;;;;9.98;4.45;;;;;;;16.66;78.36;98135.38;5055272;28;20079;-59
2022/10/27 09:40:41;;;;;;;7.50;2.58;;;;;;;16.69;78.38;98145.78;5053182;28;20552;-59
2022/10/27 09:43:09;;;;;;;9.18;2.88;;;;;;;16.78;78.30;98137.88;5054893;28;20051;-59
2022/10/27 09:45:36;;;;;;;7.63;2.45;;;;;;;16.91;76.82;98144.69;5058031;28;20575;-59
2022/10/27 09:48:06;;;;;;;8.85;2.42;;;;;;;16.99;76.06;98141.41;5064873;28;20095;-59
2022/10/27 09:50:39;;;;;;;10.30;2.80;;;;;;;17.01;75.77;98147.44;5060239;28;20144;-59
2022/10/27 09:53:42;;;;;;;9.93;2.30;;;;;;;17.07;74.53;98144.72;5058304;28;20535;-57
2022/10/27 09:56:13;;;;;;;7.60;2.80;;;;;;;17.32;73.98;98145.78;5047570;28;20045;-57
2022/10/27 09:58:50;;;;;;;5.70;2.03;;;;;;;17.24;74.16;98145.22;5041018;28;20541;-57
2022/10/27 10:01:17;;;;;;;;;;;;;;;17.34;73.92;98140.81;5043385;28;20080;-57
2022/10/27 10:04:14;;;;;;;7.95;2.55;;;;;;;17.44;73.21;98139.97;5041186;28;19928;-56
2022/10/27 10:06:41;;;;;;;7.13;2.63;;;;;;;17.41;72.38;98144.09;5051045;28;20140;-58
2022/10/27 10:09:19;;;;;;;8.27;2.00;;;;;;;17.57;71.82;98139.38;5044928;28;20036;-59
2022/10/27 10:11:45;;;;;;;8.40;2.60;;;;;;;17.61;71.82;98140.47;5061237;28;20064;-60
2022/10/27 10:14:21;;;;;;;8.13;2.00;;;;;;;17.73;71.12;98136.59;5061426;28;20284;-60
2022/10/27 10:16:48;;;;;;;5.30;2.20;;;;;;;17.89;70.07;98134.59;5063684;28;20037;-60
2022/10/27 10:19:21;;;;;;;6.55;2.03;;;;;;;17.88;70.43;98128.28;5064459;28;20053;-60
2022/10/27 10:21:58;;;;;;;6.82;2.40;;;;;;;17.98;69.32;98132.91;5060394;28;20485;-60
2022/10/27 10:24:28;;;;;;;6.47;2.53;;;;;;;18.12;69.41;98137.78;5052767;28;20688;-59
2022/10/27 10:26:57;;;;;;;9.40;3.05;;;;;;;18.12;70.90;98138.63;5060638;28;20075;-59
2022/10/27 10:29:47;;;;;;;10.00;2.20;;;;;;;18.20;67.61;98142.69;5061850;28;20068;-58
2022/10/27 10:32:21;;;;;;;8.05;2.03;;;;;;;18.23;68.85;98130.31;5064703;28;20663;-58
2022/10/27 10:34:51;;;;;;;8.50;2.90;;;;;;;18.35;67.01;98127.25;5050869;28;20122;-58
2022/10/27 10:37:38;;;;;;;9.50;2.73;;;;;;;18.33;67.20;98135.75;5064855;28;20535;-58
2022/10/27 10:40:12;;;;;;;10.10;2.92;;;;;;;18.46;68.86;98126.06;5064940;28;20519;-58
2022/10/27 10:42:39;;;;;;;5.60;2.38;;;;;;;18.48;66.86;98117.56;5064079;28;20049;-59
2022/10/27 10:45:21;;;;;;;6.78;2.50;;;;;;;18.54;69.14;98125.44;5055129;28;20040;-60
2022/10/27 10:47:58;;;;;;;11.30;2.30;;;;;;;18.67;66.43;98124.00;5064593;28;20629;-57
2022/10/27 10:50:27;;;;;;;7.30;2.40;;;;;;;18.68;65.70;98122.06;5056549;28;20048;-57
2022/10/27 10:52:56;;;;;;;7.80;2.00;;;;;;;18.81;66.57;98121.41;5063465;28;20076;-58
2022/10/27 10:55:28;;;;;;;4.82;1.90;;;;;;;18.89;66.80;98127.38;5064338;28;20133;-58
2022/10/27 10:57:56;;;;;;;12.07;2.00;;;;;;;18.89;68.27;98124.63;5059154;28;20477;-59
2022/10/27 11:00:24;;;;;;;9.73;2.08;;;;;;;18.94;67.61;98122.66;5058229;28;20052;-58
2022/10/27 11:02:57;;;;;;;8.40;3.60;;;;;;;19.04;69.10;98118.16;5063807;28;20603;-60
2022/10/27 11:05:30;;;;;;;8.45;1.92;;;;;;;19.03;67.56;98109.13;5061234;28;20075;-60
2022/10/27 11:07:57;;;;;;;6.70;2.05;;;;;;;19.03;67.68;98106.41;5064058;28;20068;-60
2022/10/27 11:10:29;;;;;;;7.18;2.10;;;;;;;19.08;68.43;98102.78;5062559;28;20079;-59
2022/10/27 11:13:00;;;;;;;5.75;1.80;;;;;;;19.05;67.88;98106.09;5060106;28;20051;-60
2022/10/27 11:15:27;;;;;;;7.80;2.30;;;;;;;19.02;69.48;98098.44;5047963;28;20112;-60
2022/10/27 11:18:48;;;;;;;8.10;1.80;;;;;;;19.03;68.05;98100.06;5053934;28;20052;-60
2022/10/27 11:21:38;;;;;;;6.00;1.83;;;;;;;19.12;67.36;98089.31;5041050;28;20140;-59
2022/10/27 11:24:20;;;;;;;12.10;2.00;;;;;;;19.10;67.36;98095.09;5038477;28;20543;-59
2022/10/27 11:26:53;;;;;;;5.45;1.85;;;;;;;19.15;67.24;98092.28;5058578;28;20059;-57
2022/10/27 11:29:26;;;;;;;7.97;2.10;;;;;;;19.15;68.05;98089.56;5055821;28;20056;-59
2022/10/27 11:32:14;;;;;;;8.70;2.17;;;;;;;19.22;65.91;98092.78;5063705;28;20052;-59
2022/10/27 11:35:08;;;;;;;7.57;1.92;;;;;;;19.30;66.93;98087.72;5057180;28;20163;-59
2022/10/27 11:38:02;;;;;;;5.53;1.60;;;;;;;19.36;66.50;98092.06;5057608;28;20048;-58
2022/10/27 11:40:56;;;;;;;8.57;1.90;;;;;;;19.55;62.22;98083.06;5051177;28;20071;-58
2022/10/27 11:43:40;;;;;;;8.95;2.22;;;;;;;19.68;60.62;98073.28;5063858;28;20058;-58